sensor_id;sensor_type;location;lat;lon;timestamp;P1;durP1;ratioP1;P2;durP2;ratioP2
72891;SDS011;61032;50.782;6.818;2023-12-14T00:00:51;7.00;;;3.60;;
72891;SDS011;61032;50.782;6.818;2023-12-14T00:01:52;8.80;;;3.63;;
72891;SDS011;61032;50.782;6.818;2023-12-14T00:02:52;9.85;;;3.45;;
72891;SDS011;61032;50.782;6.818;2023-12-14T00:03:52;7.05;;;3.80;;
72891;SDS011;61032;50.782;6.818;2023-12-14T00:04:52;6.93;;;3.85;;
72891;SDS011;61032;50.782;6.818;2023-12-14T00:05:53;6.15;;;3.92;;
72891;SDS011;61032;50.782;6.818;2023-12-14T00:06:53;5.72;;;3.33;;
72891;SDS011;61032;50.782;6.818;2023-12-14T00:07:53;7.45;;;4.13;;
72891;SDS011;61032;50.782;6.818;2023-12-14T00:08:54;9.15;;;4.65;;
72891;SDS011;61032;50.782;6.818;2023-12-14T00:09:54;6.47;;;3.92;;
72891;SDS011;61032;50.782;6.818;2023-12-14T00:10:54;6.97;;;3.83;;
72891;SDS011;61032;50.782;6.818;2023-12-14T00:11:55;7.00;;;4.18;;
72891;SDS011;61032;50.782;6.818;2023-12-14T00:12:55;9.98;;;4.80;;
72891;SDS011;61032;50.782;6.818;2023-12-14T00:13:55;12.00;;;5.57;;
72891;SDS011;61032;50.782;6.818;2023-12-14T00:14:56;14.73;;;5.53;;
72891;SDS011;61032;50.782;6.818;2023-12-14T00:15:56;12.32;;;6.60;;
72891;SDS011;61032;50.782;6.818;2023-12-14T00:16:56;13.15;;;6.53;;
72891;SDS011;61032;50.782;6.818;2023-12-14T00:17:59;12.98;;;6.18;;
72891;SDS011;61032;50.782;6.818;2023-12-14T00:18:59;13.27;;;6.65;;
72891;SDS011;61032;50.782;6.818;2023-12-14T00:19:59;16.38;;;7.50;;
72891;SDS011;61032;50.782;6.818;2023-12-14T00:21:00;16.50;;;7.95;;
72891;SDS011;61032;50.782;6.818;2023-12-14T00:22:00;15.75;;;7.57;;
72891;SDS011;61032;50.782;6.818;2023-12-14T00:23:00;15.25;;;7.85;;
72891;SDS011;61032;50.782;6.818;2023-12-14T00:24:01;16.70;;;7.88;;
72891;SDS011;61032;50.782;6.818;2023-12-14T00:25:01;17.00;;;7.35;;
72891;SDS011;61032;50.782;6.818;2023-12-14T00:26:02;19.45;;;8.48;;
72891;SDS011;61032;50.782;6.818;2023-12-14T00:27:03;20.15;;;8.18;;
72891;SDS011;61032;50.782;6.818;2023-12-14T00:28:03;17.48;;;9.10;;
72891;SDS011;61032;50.782;6.818;2023-12-14T00:29:03;19.67;;;9.30;;
72891;SDS011;61032;50.782;6.818;2023-12-14T00:30:04;19.02;;;9.63;;
72891;SDS011;61032;50.782;6.818;2023-12-14T00:31:05;24.98;;;9.80;;
72891;SDS011;61032;50.782;6.818;2023-12-14T00:32:06;19.75;;;9.75;;
72891;SDS011;61032;50.782;6.818;2023-12-14T00:33:06;19.80;;;8.82;;
72891;SDS011;61032;50.782;6.818;2023-12-14T00:34:06;19.13;;;8.77;;
72891;SDS011;61032;50.782;6.818;2023-12-14T00:35:07;25.17;;;10.80;;
72891;SDS011;61032;50.782;6.818;2023-12-14T00:36:07;19.88;;;9.45;;
72891;SDS011;61032;50.782;6.818;2023-12-14T00:37:08;21.73;;;10.38;;
72891;SDS011;61032;50.782;6.818;2023-12-14T00:38:08;20.50;;;9.45;;
72891;SDS011;61032;50.782;6.818;2023-12-14T00:39:09;19.92;;;10.07;;
72891;SDS011;61032;50.782;6.818;2023-12-14T00:40:09;24.38;;;9.85;;
72891;SDS011;61032;50.782;6.818;2023-12-14T00:41:10;20.92;;;9.82;;
72891;SDS011;61032;50.782;6.818;2023-12-14T00:42:10;23.25;;;10.68;;
72891;SDS011;61032;50.782;6.818;2023-12-14T00:43:10;22.67;;;11.07;;
72891;SDS011;61032;50.782;6.818;2023-12-14T00:44:11;23.67;;;12.05;;
72891;SDS011;61032;50.782;6.818;2023-12-14T00:45:11;24.92;;;11.00;;
72891;SDS011;61032;50.782;6.818;2023-12-14T00:46:12;25.00;;;11.15;;
72891;SDS011;61032;50.782;6.818;2023-12-14T00:47:12;26.08;;;11.88;;
72891;SDS011;61032;50.782;6.818;2023-12-14T00:48:13;23.98;;;11.68;;
72891;SDS011;61032;50.782;6.818;2023-12-14T00:49:13;26.25;;;11.10;;
72891;SDS011;61032;50.782;6.818;2023-12-14T00:50:13;25.20;;;10.90;;
72891;SDS011;61032;50.782;6.818;2023-12-14T00:51:14;25.42;;;11.65;;
72891;SDS011;61032;50.782;6.818;2023-12-14T00:52:14;23.77;;;11.98;;
72891;SDS011;61032;50.782;6.818;2023-12-14T00:53:14;25.27;;;11.80;;
72891;SDS011;61032;50.782;6.818;2023-12-14T00:54:15;27.77;;;11.80;;
72891;SDS011;61032;50.782;6.818;2023-12-14T00:55:15;27.33;;;11.82;;
72891;SDS011;61032;50.782;6.818;2023-12-14T00:56:16;27.17;;;11.48;;
72891;SDS011;61032;50.782;6.818;2023-12-14T00:57:16;24.17;;;11.40;;
72891;SDS011;61032;50.782;6.818;2023-12-14T00:58:17;25.63;;;11.43;;
72891;SDS011;61032;50.782;6.818;2023-12-14T00:59:17;27.80;;;13.23;;
72891;SDS011;61032;50.782;6.818;2023-12-14T01:00:18;29.40;;;12.70;;
72891;SDS011;61032;50.782;6.818;2023-12-14T01:01:18;32.50;;;14.00;;
72891;SDS011;61032;50.782;6.818;2023-12-14T01:02:19;27.30;;;12.35;;
72891;SDS011;61032;50.782;6.818;2023-12-14T01:03:19;25.88;;;12.18;;
72891;SDS011;61032;50.782;6.818;2023-12-14T01:04:19;31.65;;;13.13;;
72891;SDS011;61032;50.782;6.818;2023-12-14T01:05:20;34.15;;;14.38;;
72891;SDS011;61032;50.782;6.818;2023-12-14T01:06:20;28.38;;;12.60;;
72891;SDS011;61032;50.782;6.818;2023-12-14T01:07:20;27.88;;;12.95;;
72891;SDS011;61032;50.782;6.818;2023-12-14T01:08:21;29.48;;;13.18;;
72891;SDS011;61032;50.782;6.818;2023-12-14T01:09:21;26.65;;;12.38;;
72891;SDS011;61032;50.782;6.818;2023-12-14T01:10:21;29.38;;;13.05;;
72891;SDS011;61032;50.782;6.818;2023-12-14T01:11:22;29.23;;;12.27;;
72891;SDS011;61032;50.782;6.818;2023-12-14T01:12:22;31.17;;;13.50;;
72891;SDS011;61032;50.782;6.818;2023-12-14T01:13:23;31.23;;;13.45;;
72891;SDS011;61032;50.782;6.818;2023-12-14T01:14:23;28.45;;;13.63;;
72891;SDS011;61032;50.782;6.818;2023-12-14T01:15:23;30.38;;;12.85;;
72891;SDS011;61032;50.782;6.818;2023-12-14T01:16:25;34.03;;;14.43;;
72891;SDS011;61032;50.782;6.818;2023-12-14T01:17:26;28.77;;;12.95;;
72891;SDS011;61032;50.782;6.818;2023-12-14T01:18:28;33.08;;;13.13;;
72891;SDS011;61032;50.782;6.818;2023-12-14T01:19:29;34.17;;;13.88;;
72891;SDS011;61032;50.782;6.818;2023-12-14T01:20:29;29.60;;;13.10;;
72891;SDS011;61032;50.782;6.818;2023-12-14T01:21:30;35.17;;;13.95;;
72891;SDS011;61032;50.782;6.818;2023-12-14T01:22:30;29.95;;;13.68;;
72891;SDS011;61032;50.782;6.818;2023-12-14T01:23:30;34.72;;;12.75;;
72891;SDS011;61032;50.782;6.818;2023-12-14T01:24:31;30.23;;;14.23;;
72891;SDS011;61032;50.782;6.818;2023-12-14T01:25:31;35.63;;;14.63;;
72891;SDS011;61032;50.782;6.818;2023-12-14T01:26:31;31.83;;;13.82;;
72891;SDS011;61032;50.782;6.818;2023-12-14T01:27:32;28.40;;;12.63;;
72891;SDS011;61032;50.782;6.818;2023-12-14T01:28:32;29.48;;;13.05;;
72891;SDS011;61032;50.782;6.818;2023-12-14T01:29:32;30.08;;;11.73;;
72891;SDS011;61032;50.782;6.818;2023-12-14T01:30:33;32.42;;;13.18;;
72891;SDS011;61032;50.782;6.818;2023-12-14T01:31:33;31.05;;;12.63;;
72891;SDS011;61032;50.782;6.818;2023-12-14T01:32:34;30.08;;;12.43;;
72891;SDS011;61032;50.782;6.818;2023-12-14T01:33:34;27.33;;;12.77;;
72891;SDS011;61032;50.782;6.818;2023-12-14T01:34:34;28.30;;;12.35;;
72891;SDS011;61032;50.782;6.818;2023-12-14T01:35:35;32.13;;;13.43;;
72891;SDS011;61032;50.782;6.818;2023-12-14T01:36:35;30.67;;;12.68;;
72891;SDS011;61032;50.782;6.818;2023-12-14T01:37:35;29.25;;;12.40;;
72891;SDS011;61032;50.782;6.818;2023-12-14T01:38:36;31.08;;;12.38;;
72891;SDS011;61032;50.782;6.818;2023-12-14T01:39:36;33.10;;;12.90;;
72891;SDS011;61032;50.782;6.818;2023-12-14T01:40:36;26.60;;;12.25;;
72891;SDS011;61032;50.782;6.818;2023-12-14T01:41:37;33.58;;;14.02;;
72891;SDS011;61032;50.782;6.818;2023-12-14T01:42:37;31.30;;;12.70;;
72891;SDS011;61032;50.782;6.818;2023-12-14T01:43:37;28.88;;;12.07;;
72891;SDS011;61032;50.782;6.818;2023-12-14T01:44:38;33.13;;;13.25;;
72891;SDS011;61032;50.782;6.818;2023-12-14T01:45:38;25.30;;;11.85;;
72891;SDS011;61032;50.782;6.818;2023-12-14T01:46:38;37.05;;;15.23;;
72891;SDS011;61032;50.782;6.818;2023-12-14T01:47:39;26.23;;;11.90;;
72891;SDS011;61032;50.782;6.818;2023-12-14T01:48:39;30.23;;;12.02;;
72891;SDS011;61032;50.782;6.818;2023-12-14T01:49:39;35.28;;;13.00;;
72891;SDS011;61032;50.782;6.818;2023-12-14T01:50:41;28.13;;;12.25;;
72891;SDS011;61032;50.782;6.818;2023-12-14T01:51:41;31.23;;;12.52;;
72891;SDS011;61032;50.782;6.818;2023-12-14T01:52:42;24.73;;;11.38;;
72891;SDS011;61032;50.782;6.818;2023-12-14T01:53:42;29.23;;;12.60;;
72891;SDS011;61032;50.782;6.818;2023-12-14T01:54:42;26.67;;;11.35;;
72891;SDS011;61032;50.782;6.818;2023-12-14T01:55:43;24.92;;;11.48;;
72891;SDS011;61032;50.782;6.818;2023-12-14T01:56:43;26.70;;;11.27;;
72891;SDS011;61032;50.782;6.818;2023-12-14T01:57:43;26.52;;;11.13;;
72891;SDS011;61032;50.782;6.818;2023-12-14T01:58:44;25.00;;;11.55;;
72891;SDS011;61032;50.782;6.818;2023-12-14T01:59:44;27.52;;;11.77;;
72891;SDS011;61032;50.782;6.818;2023-12-14T02:02:09;27.20;;;11.95;;
72891;SDS011;61032;50.782;6.818;2023-12-14T02:03:09;21.55;;;10.32;;
72891;SDS011;61032;50.782;6.818;2023-12-14T02:04:10;23.17;;;9.90;;
72891;SDS011;61032;50.782;6.818;2023-12-14T02:05:12;22.17;;;10.25;;
72891;SDS011;61032;50.782;6.818;2023-12-14T02:06:12;20.67;;;10.35;;
72891;SDS011;61032;50.782;6.818;2023-12-14T02:07:12;22.05;;;10.00;;
72891;SDS011;61032;50.782;6.818;2023-12-14T02:08:13;22.13;;;10.65;;
72891;SDS011;61032;50.782;6.818;2023-12-14T02:09:13;23.27;;;9.70;;
72891;SDS011;61032;50.782;6.818;2023-12-14T02:10:13;24.17;;;10.63;;
72891;SDS011;61032;50.782;6.818;2023-12-14T02:11:14;24.02;;;10.25;;
72891;SDS011;61032;50.782;6.818;2023-12-14T02:12:14;21.45;;;10.25;;
72891;SDS011;61032;50.782;6.818;2023-12-14T02:13:14;22.42;;;10.10;;
72891;SDS011;61032;50.782;6.818;2023-12-14T02:14:15;23.90;;;10.20;;
72891;SDS011;61032;50.782;6.818;2023-12-14T02:15:15;24.88;;;11.30;;
72891;SDS011;61032;50.782;6.818;2023-12-14T02:16:15;20.98;;;9.93;;
72891;SDS011;61032;50.782;6.818;2023-12-14T02:17:16;23.83;;;10.95;;
72891;SDS011;61032;50.782;6.818;2023-12-14T02:18:16;23.42;;;10.70;;
72891;SDS011;61032;50.782;6.818;2023-12-14T02:19:16;22.98;;;11.43;;
72891;SDS011;61032;50.782;6.818;2023-12-14T02:20:17;21.55;;;10.40;;
72891;SDS011;61032;50.782;6.818;2023-12-14T02:21:17;21.42;;;10.88;;
72891;SDS011;61032;50.782;6.818;2023-12-14T02:22:19;24.45;;;10.60;;
72891;SDS011;61032;50.782;6.818;2023-12-14T02:23:19;25.98;;;11.52;;
72891;SDS011;61032;50.782;6.818;2023-12-14T02:24:19;23.20;;;10.80;;
72891;SDS011;61032;50.782;6.818;2023-12-14T02:25:20;23.20;;;11.05;;
72891;SDS011;61032;50.782;6.818;2023-12-14T02:26:22;26.27;;;10.32;;
72891;SDS011;61032;50.782;6.818;2023-12-14T02:27:22;21.40;;;10.05;;
72891;SDS011;61032;50.782;6.818;2023-12-14T02:28:22;20.83;;;10.25;;
72891;SDS011;61032;50.782;6.818;2023-12-14T02:29:23;26.05;;;11.48;;
72891;SDS011;61032;50.782;6.818;2023-12-14T02:30:23;22.85;;;10.05;;
72891;SDS011;61032;50.782;6.818;2023-12-14T02:31:23;22.58;;;11.20;;
72891;SDS011;61032;50.782;6.818;2023-12-14T02:32:24;20.65;;;9.93;;
72891;SDS011;61032;50.782;6.818;2023-12-14T02:33:24;26.40;;;11.10;;
72891;SDS011;61032;50.782;6.818;2023-12-14T02:34:25;26.23;;;11.80;;
72891;SDS011;61032;50.782;6.818;2023-12-14T02:35:25;24.80;;;11.88;;
72891;SDS011;61032;50.782;6.818;2023-12-14T02:36:25;26.23;;;10.65;;
72891;SDS011;61032;50.782;6.818;2023-12-14T02:37:26;25.02;;;11.43;;
72891;SDS011;61032;50.782;6.818;2023-12-14T02:38:26;25.13;;;12.07;;
72891;SDS011;61032;50.782;6.818;2023-12-14T02:39:26;26.23;;;11.70;;
72891;SDS011;61032;50.782;6.818;2023-12-14T02:40:27;24.38;;;11.48;;
72891;SDS011;61032;50.782;6.818;2023-12-14T02:41:27;28.85;;;11.88;;
72891;SDS011;61032;50.782;6.818;2023-12-14T02:42:28;23.15;;;10.95;;
72891;SDS011;61032;50.782;6.818;2023-12-14T02:43:28;25.30;;;10.90;;
72891;SDS011;61032;50.782;6.818;2023-12-14T02:44:28;26.20;;;11.48;;
72891;SDS011;61032;50.782;6.818;2023-12-14T02:45:29;29.48;;;12.38;;
72891;SDS011;61032;50.782;6.818;2023-12-14T02:46:29;25.67;;;11.68;;
72891;SDS011;61032;50.782;6.818;2023-12-14T02:47:30;25.42;;;11.57;;
72891;SDS011;61032;50.782;6.818;2023-12-14T02:48:30;24.02;;;12.93;;
72891;SDS011;61032;50.782;6.818;2023-12-14T02:49:31;26.60;;;11.52;;
72891;SDS011;61032;50.782;6.818;2023-12-14T02:50:31;26.50;;;11.07;;
72891;SDS011;61032;50.782;6.818;2023-12-14T02:51:31;28.88;;;11.85;;
72891;SDS011;61032;50.782;6.818;2023-12-14T02:52:32;32.88;;;12.75;;
72891;SDS011;61032;50.782;6.818;2023-12-14T02:53:32;25.52;;;12.27;;
72891;SDS011;61032;50.782;6.818;2023-12-14T02:54:33;28.67;;;12.40;;
72891;SDS011;61032;50.782;6.818;2023-12-14T02:55:33;28.92;;;11.57;;
72891;SDS011;61032;50.782;6.818;2023-12-14T02:56:33;27.95;;;12.18;;
72891;SDS011;61032;50.782;6.818;2023-12-14T02:57:34;29.10;;;12.32;;
72891;SDS011;61032;50.782;6.818;2023-12-14T02:58:34;27.98;;;12.13;;
72891;SDS011;61032;50.782;6.818;2023-12-14T02:59:34;30.15;;;13.00;;
72891;SDS011;61032;50.782;6.818;2023-12-14T03:00:34;30.88;;;11.77;;
72891;SDS011;61032;50.782;6.818;2023-12-14T03:01:35;25.73;;;11.68;;
72891;SDS011;61032;50.782;6.818;2023-12-14T03:02:35;28.58;;;12.25;;
72891;SDS011;61032;50.782;6.818;2023-12-14T03:03:38;26.33;;;12.10;;
72891;SDS011;61032;50.782;6.818;2023-12-14T03:04:39;27.17;;;11.70;;
72891;SDS011;61032;50.782;6.818;2023-12-14T03:05:39;30.05;;;13.20;;
72891;SDS011;61032;50.782;6.818;2023-12-14T03:06:40;31.05;;;13.02;;
72891;SDS011;61032;50.782;6.818;2023-12-14T03:07:40;34.30;;;13.27;;
72891;SDS011;61032;50.782;6.818;2023-12-14T03:08:40;31.23;;;13.43;;
72891;SDS011;61032;50.782;6.818;2023-12-14T03:09:41;37.22;;;14.10;;
72891;SDS011;61032;50.782;6.818;2023-12-14T03:10:44;31.95;;;12.80;;
72891;SDS011;61032;50.782;6.818;2023-12-14T03:11:44;31.33;;;12.85;;
72891;SDS011;61032;50.782;6.818;2023-12-14T03:12:45;35.63;;;13.90;;
72891;SDS011;61032;50.782;6.818;2023-12-14T03:13:45;31.48;;;13.00;;
72891;SDS011;61032;50.782;6.818;2023-12-14T03:14:45;30.85;;;12.70;;
72891;SDS011;61032;50.782;6.818;2023-12-14T03:15:46;27.85;;;12.40;;
72891;SDS011;61032;50.782;6.818;2023-12-14T03:16:49;29.52;;;12.32;;
72891;SDS011;61032;50.782;6.818;2023-12-14T03:17:49;29.33;;;13.27;;
72891;SDS011;61032;50.782;6.818;2023-12-14T03:18:49;28.10;;;12.10;;
72891;SDS011;61032;50.782;6.818;2023-12-14T03:19:53;28.80;;;13.48;;
72891;SDS011;61032;50.782;6.818;2023-12-14T03:20:53;30.60;;;13.43;;
72891;SDS011;61032;50.782;6.818;2023-12-14T03:21:53;28.77;;;13.15;;
72891;SDS011;61032;50.782;6.818;2023-12-14T03:22:54;27.70;;;11.77;;
72891;SDS011;61032;50.782;6.818;2023-12-14T03:23:54;34.00;;;13.27;;
72891;SDS011;61032;50.782;6.818;2023-12-14T03:24:54;34.00;;;12.45;;
72891;SDS011;61032;50.782;6.818;2023-12-14T03:25:55;31.05;;;14.00;;
72891;SDS011;61032;50.782;6.818;2023-12-14T03:26:55;29.38;;;13.10;;
72891;SDS011;61032;50.782;6.818;2023-12-14T03:27:55;30.05;;;13.57;;
72891;SDS011;61032;50.782;6.818;2023-12-14T03:28:56;28.92;;;11.98;;
72891;SDS011;61032;50.782;6.818;2023-12-14T03:29:56;30.13;;;12.95;;
72891;SDS011;61032;50.782;6.818;2023-12-14T03:30:56;30.77;;;13.20;;
72891;SDS011;61032;50.782;6.818;2023-12-14T03:31:57;32.63;;;14.15;;
72891;SDS011;61032;50.782;6.818;2023-12-14T03:32:57;28.50;;;11.90;;
72891;SDS011;61032;50.782;6.818;2023-12-14T03:33:58;29.35;;;13.27;;
72891;SDS011;61032;50.782;6.818;2023-12-14T03:34:58;31.92;;;13.23;;
72891;SDS011;61032;50.782;6.818;2023-12-14T03:35:58;29.25;;;12.75;;
72891;SDS011;61032;50.782;6.818;2023-12-14T03:36:59;30.05;;;12.60;;
72891;SDS011;61032;50.782;6.818;2023-12-14T03:37:59;33.45;;;13.60;;
72891;SDS011;61032;50.782;6.818;2023-12-14T03:39:00;32.15;;;13.07;;
72891;SDS011;61032;50.782;6.818;2023-12-14T03:40:01;31.40;;;12.93;;
72891;SDS011;61032;50.782;6.818;2023-12-14T03:41:02;31.38;;;13.02;;
72891;SDS011;61032;50.782;6.818;2023-12-14T03:42:02;30.33;;;12.50;;
72891;SDS011;61032;50.782;6.818;2023-12-14T03:43:02;28.55;;;12.43;;
72891;SDS011;61032;50.782;6.818;2023-12-14T03:44:03;30.17;;;13.07;;
72891;SDS011;61032;50.782;6.818;2023-12-14T03:45:04;31.52;;;12.45;;
72891;SDS011;61032;50.782;6.818;2023-12-14T03:46:04;31.15;;;12.93;;
72891;SDS011;61032;50.782;6.818;2023-12-14T03:47:06;29.77;;;12.63;;
72891;SDS011;61032;50.782;6.818;2023-12-14T03:48:06;29.83;;;12.32;;
72891;SDS011;61032;50.782;6.818;2023-12-14T03:49:06;31.55;;;13.15;;
72891;SDS011;61032;50.782;6.818;2023-12-14T03:50:07;32.55;;;13.48;;
72891;SDS011;61032;50.782;6.818;2023-12-14T03:51:10;31.05;;;12.63;;
72891;SDS011;61032;50.782;6.818;2023-12-14T03:52:10;31.95;;;12.82;;
72891;SDS011;61032;50.782;6.818;2023-12-14T03:53:11;35.95;;;13.10;;
72891;SDS011;61032;50.782;6.818;2023-12-14T03:54:11;33.92;;;13.15;;
72891;SDS011;61032;50.782;6.818;2023-12-14T03:55:12;29.15;;;12.50;;
72891;SDS011;61032;50.782;6.818;2023-12-14T03:56:12;36.97;;;13.90;;
72891;SDS011;61032;50.782;6.818;2023-12-14T03:57:12;32.45;;;13.00;;
72891;SDS011;61032;50.782;6.818;2023-12-14T03:58:13;29.40;;;11.98;;
72891;SDS011;61032;50.782;6.818;2023-12-14T03:59:13;31.85;;;12.55;;
72891;SDS011;61032;50.782;6.818;2023-12-14T04:00:13;31.70;;;12.32;;
72891;SDS011;61032;50.782;6.818;2023-12-14T04:01:17;28.83;;;11.45;;
72891;SDS011;61032;50.782;6.818;2023-12-14T04:02:19;27.33;;;11.73;;
72891;SDS011;61032;50.782;6.818;2023-12-14T04:03:19;26.10;;;10.93;;
72891;SDS011;61032;50.782;6.818;2023-12-14T04:04:20;27.00;;;11.45;;
72891;SDS011;61032;50.782;6.818;2023-12-14T04:05:20;26.58;;;11.77;;
72891;SDS011;61032;50.782;6.818;2023-12-14T04:06:20;31.80;;;12.90;;
72891;SDS011;61032;50.782;6.818;2023-12-14T04:07:21;31.70;;;11.63;;
72891;SDS011;61032;50.782;6.818;2023-12-14T04:08:21;30.80;;;12.15;;
72891;SDS011;61032;50.782;6.818;2023-12-14T04:09:21;30.90;;;11.38;;
72891;SDS011;61032;50.782;6.818;2023-12-14T04:10:22;29.77;;;11.73;;
72891;SDS011;61032;50.782;6.818;2023-12-14T04:11:22;33.80;;;12.13;;
72891;SDS011;61032;50.782;6.818;2023-12-14T04:12:22;28.38;;;11.88;;
72891;SDS011;61032;50.782;6.818;2023-12-14T04:13:22;29.70;;;12.70;;
72891;SDS011;61032;50.782;6.818;2023-12-14T04:14:23;30.88;;;13.05;;
72891;SDS011;61032;50.782;6.818;2023-12-14T04:15:23;28.73;;;12.98;;
72891;SDS011;61032;50.782;6.818;2023-12-14T04:16:23;30.55;;;12.82;;
72891;SDS011;61032;50.782;6.818;2023-12-14T04:17:24;38.00;;;14.13;;
72891;SDS011;61032;50.782;6.818;2023-12-14T04:18:24;29.45;;;12.40;;
72891;SDS011;61032;50.782;6.818;2023-12-14T04:19:25;30.13;;;12.73;;
72891;SDS011;61032;50.782;6.818;2023-12-14T04:20:25;31.85;;;13.70;;
72891;SDS011;61032;50.782;6.818;2023-12-14T04:21:26;31.33;;;12.50;;
72891;SDS011;61032;50.782;6.818;2023-12-14T04:22:26;33.42;;;13.27;;
72891;SDS011;61032;50.782;6.818;2023-12-14T04:23:27;31.60;;;13.60;;
72891;SDS011;61032;50.782;6.818;2023-12-14T04:24:27;33.28;;;12.52;;
72891;SDS011;61032;50.782;6.818;2023-12-14T04:25:27;29.45;;;13.63;;
72891;SDS011;61032;50.782;6.818;2023-12-14T04:26:28;35.00;;;13.50;;
72891;SDS011;61032;50.782;6.818;2023-12-14T04:27:28;33.70;;;12.63;;
72891;SDS011;61032;50.782;6.818;2023-12-14T04:28:29;28.08;;;11.57;;
72891;SDS011;61032;50.782;6.818;2023-12-14T04:29:30;30.58;;;12.35;;
72891;SDS011;61032;50.782;6.818;2023-12-14T04:30:30;29.25;;;12.68;;
72891;SDS011;61032;50.782;6.818;2023-12-14T04:31:31;30.02;;;12.40;;
72891;SDS011;61032;50.782;6.818;2023-12-14T04:32:31;27.23;;;11.85;;
72891;SDS011;61032;50.782;6.818;2023-12-14T04:33:31;27.60;;;11.75;;
72891;SDS011;61032;50.782;6.818;2023-12-14T04:34:32;26.95;;;10.55;;
72891;SDS011;61032;50.782;6.818;2023-12-14T04:35:32;25.83;;;10.07;;
72891;SDS011;61032;50.782;6.818;2023-12-14T04:36:36;25.45;;;10.82;;
72891;SDS011;61032;50.782;6.818;2023-12-14T04:37:36;23.38;;;10.35;;
72891;SDS011;61032;50.782;6.818;2023-12-14T04:38:37;28.15;;;10.43;;
72891;SDS011;61032;50.782;6.818;2023-12-14T04:39:37;27.13;;;9.93;;
72891;SDS011;61032;50.782;6.818;2023-12-14T04:40:37;28.08;;;10.88;;
72891;SDS011;61032;50.782;6.818;2023-12-14T04:41:38;26.23;;;11.73;;
72891;SDS011;61032;50.782;6.818;2023-12-14T04:42:38;25.23;;;10.30;;
72891;SDS011;61032;50.782;6.818;2023-12-14T04:43:38;24.38;;;10.95;;
72891;SDS011;61032;50.782;6.818;2023-12-14T04:44:39;24.08;;;9.20;;
72891;SDS011;61032;50.782;6.818;2023-12-14T04:45:39;20.38;;;9.23;;
72891;SDS011;61032;50.782;6.818;2023-12-14T04:46:39;17.13;;;8.70;;
72891;SDS011;61032;50.782;6.818;2023-12-14T04:47:39;22.80;;;9.27;;
72891;SDS011;61032;50.782;6.818;2023-12-14T04:48:40;20.90;;;7.57;;
72891;SDS011;61032;50.782;6.818;2023-12-14T04:49:41;23.52;;;9.43;;
72891;SDS011;61032;50.782;6.818;2023-12-14T04:50:41;22.30;;;9.27;;
72891;SDS011;61032;50.782;6.818;2023-12-14T04:51:42;19.48;;;9.52;;
72891;SDS011;61032;50.782;6.818;2023-12-14T04:52:42;23.15;;;10.65;;
72891;SDS011;61032;50.782;6.818;2023-12-14T04:53:43;17.80;;;9.10;;
72891;SDS011;61032;50.782;6.818;2023-12-14T04:54:43;20.10;;;9.02;;
72891;SDS011;61032;50.782;6.818;2023-12-14T04:55:43;24.10;;;8.80;;
72891;SDS011;61032;50.782;6.818;2023-12-14T04:56:46;21.00;;;8.05;;
72891;SDS011;61032;50.782;6.818;2023-12-14T04:57:47;20.38;;;8.38;;
72891;SDS011;61032;50.782;6.818;2023-12-14T04:58:48;18.38;;;8.88;;
72891;SDS011;61032;50.782;6.818;2023-12-14T04:59:49;22.63;;;10.45;;
72891;SDS011;61032;50.782;6.818;2023-12-14T05:00:49;20.73;;;9.50;;
72891;SDS011;61032;50.782;6.818;2023-12-14T05:01:50;22.98;;;9.60;;
72891;SDS011;61032;50.782;6.818;2023-12-14T05:02:50;19.70;;;9.48;;
72891;SDS011;61032;50.782;6.818;2023-12-14T05:03:50;23.65;;;8.80;;
72891;SDS011;61032;50.782;6.818;2023-12-14T05:04:51;24.15;;;9.95;;
72891;SDS011;61032;50.782;6.818;2023-12-14T05:05:51;24.40;;;9.98;;
72891;SDS011;61032;50.782;6.818;2023-12-14T05:06:51;20.75;;;8.75;;
72891;SDS011;61032;50.782;6.818;2023-12-14T05:07:52;22.27;;;10.30;;
72891;SDS011;61032;50.782;6.818;2023-12-14T05:08:52;23.95;;;9.98;;
72891;SDS011;61032;50.782;6.818;2023-12-14T05:09:52;23.85;;;8.88;;
72891;SDS011;61032;50.782;6.818;2023-12-14T05:10:53;21.77;;;9.18;;
72891;SDS011;61032;50.782;6.818;2023-12-14T05:11:53;19.95;;;8.98;;
72891;SDS011;61032;50.782;6.818;2023-12-14T05:12:53;18.55;;;8.43;;
72891;SDS011;61032;50.782;6.818;2023-12-14T05:13:54;19.42;;;8.82;;
72891;SDS011;61032;50.782;6.818;2023-12-14T05:14:54;21.15;;;9.30;;
72891;SDS011;61032;50.782;6.818;2023-12-14T05:15:54;19.30;;;8.02;;
72891;SDS011;61032;50.782;6.818;2023-12-14T05:16:55;18.70;;;8.20;;
72891;SDS011;61032;50.782;6.818;2023-12-14T05:17:55;21.80;;;9.25;;
72891;SDS011;61032;50.782;6.818;2023-12-14T05:18:55;22.08;;;9.02;;
72891;SDS011;61032;50.782;6.818;2023-12-14T05:19:57;21.58;;;9.07;;
72891;SDS011;61032;50.782;6.818;2023-12-14T05:20:59;21.85;;;8.35;;
72891;SDS011;61032;50.782;6.818;2023-12-14T05:21:59;21.33;;;8.77;;
72891;SDS011;61032;50.782;6.818;2023-12-14T05:22:59;23.00;;;9.10;;
72891;SDS011;61032;50.782;6.818;2023-12-14T05:24:00;22.73;;;9.18;;
72891;SDS011;61032;50.782;6.818;2023-12-14T05:25:00;23.30;;;10.43;;
72891;SDS011;61032;50.782;6.818;2023-12-14T05:26:01;20.48;;;9.48;;
72891;SDS011;61032;50.782;6.818;2023-12-14T05:27:01;21.63;;;9.55;;
72891;SDS011;61032;50.782;6.818;2023-12-14T05:28:01;19.80;;;9.00;;
72891;SDS011;61032;50.782;6.818;2023-12-14T05:29:02;24.02;;;10.00;;
72891;SDS011;61032;50.782;6.818;2023-12-14T05:30:02;25.58;;;10.43;;
72891;SDS011;61032;50.782;6.818;2023-12-14T05:31:03;26.52;;;11.02;;
72891;SDS011;61032;50.782;6.818;2023-12-14T05:32:04;25.17;;;9.57;;
72891;SDS011;61032;50.782;6.818;2023-12-14T05:33:04;24.75;;;10.60;;
72891;SDS011;61032;50.782;6.818;2023-12-14T05:34:05;24.50;;;10.00;;
72891;SDS011;61032;50.782;6.818;2023-12-14T05:35:05;26.08;;;9.93;;
72891;SDS011;61032;50.782;6.818;2023-12-14T05:36:06;21.13;;;9.43;;
72891;SDS011;61032;50.782;6.818;2023-12-14T05:37:10;22.40;;;9.38;;
72891;SDS011;61032;50.782;6.818;2023-12-14T05:38:10;23.90;;;11.10;;
72891;SDS011;61032;50.782;6.818;2023-12-14T05:39:11;26.35;;;10.70;;
72891;SDS011;61032;50.782;6.818;2023-12-14T05:40:11;24.45;;;10.18;;
72891;SDS011;61032;50.782;6.818;2023-12-14T05:41:11;25.27;;;9.98;;
72891;SDS011;61032;50.782;6.818;2023-12-14T05:42:12;25.80;;;10.95;;
72891;SDS011;61032;50.782;6.818;2023-12-14T05:43:16;25.20;;;10.65;;
72891;SDS011;61032;50.782;6.818;2023-12-14T05:44:16;26.35;;;10.43;;
72891;SDS011;61032;50.782;6.818;2023-12-14T05:45:16;22.60;;;9.65;;
72891;SDS011;61032;50.782;6.818;2023-12-14T05:46:21;23.23;;;10.57;;
72891;SDS011;61032;50.782;6.818;2023-12-14T05:47:26;22.05;;;10.13;;
72891;SDS011;61032;50.782;6.818;2023-12-14T05:48:30;27.00;;;11.77;;
72891;SDS011;61032;50.782;6.818;2023-12-14T05:49:30;27.15;;;9.80;;
72891;SDS011;61032;50.782;6.818;2023-12-14T05:50:31;21.88;;;9.77;;
72891;SDS011;61032;50.782;6.818;2023-12-14T05:51:31;25.90;;;11.32;;
72891;SDS011;61032;50.782;6.818;2023-12-14T05:52:32;25.45;;;11.13;;
72891;SDS011;61032;50.782;6.818;2023-12-14T05:53:33;24.58;;;10.68;;
72891;SDS011;61032;50.782;6.818;2023-12-14T05:54:39;28.98;;;10.40;;
72891;SDS011;61032;50.782;6.818;2023-12-14T05:55:39;25.23;;;10.43;;
72891;SDS011;61032;50.782;6.818;2023-12-14T05:56:41;24.85;;;11.07;;
72891;SDS011;61032;50.782;6.818;2023-12-14T05:57:41;26.83;;;11.63;;